sensor_id;sensor_type;location;lat;lon;timestamp;P1;durP1;ratioP1;P2;durP2;ratioP2
16669;SDS011;8448;52.034;5.158;2023-08-08T00:01:14;7.60;;;3.05;;
16669;SDS011;8448;52.034;5.158;2023-08-08T00:03:42;12.23;;;3.10;;
16669;SDS011;8448;52.034;5.158;2023-08-08T00:06:09;6.60;;;2.95;;
16669;SDS011;8448;52.034;5.158;2023-08-08T00:08:37;10.20;;;3.30;;
16669;SDS011;8448;52.034;5.158;2023-08-08T00:11:04;9.50;;;3.20;;
16669;SDS011;8448;52.034;5.158;2023-08-08T00:13:32;10.43;;;2.97;;
16669;SDS011;8448;52.034;5.158;2023-08-08T00:15:59;9.52;;;3.67;;
16669;SDS011;8448;52.034;5.158;2023-08-08T00:18:29;9.52;;;3.40;;
16669;SDS011;8448;52.034;5.158;2023-08-08T00:20:56;10.50;;;3.30;;
16669;SDS011;8448;52.034;5.158;2023-08-08T00:23:23;9.95;;;3.30;;
16669;SDS011;8448;52.034;5.158;2023-08-08T00:25:51;10.25;;;3.10;;
16669;SDS011;8448;52.034;5.158;2023-08-08T00:28:18;13.00;;;3.63;;
16669;SDS011;8448;52.034;5.158;2023-08-08T00:30:46;12.52;;;3.90;;
16669;SDS011;8448;52.034;5.158;2023-08-08T00:33:13;9.20;;;3.40;;
16669;SDS011;8448;52.034;5.158;2023-08-08T00:35:42;8.57;;;3.00;;
16669;SDS011;8448;52.034;5.158;2023-08-08T00:38:10;7.00;;;2.97;;
16669;SDS011;8448;52.034;5.158;2023-08-08T00:40:37;10.80;;;3.20;;
16669;SDS011;8448;52.034;5.158;2023-08-08T00:43:05;13.57;;;3.42;;
16669;SDS011;8448;52.034;5.158;2023-08-08T00:45:32;9.52;;;3.17;;
16669;SDS011;8448;52.034;5.158;2023-08-08T00:48:00;10.80;;;3.42;;
16669;SDS011;8448;52.034;5.158;2023-08-08T00:50:27;10.23;;;3.53;;
16669;SDS011;8448;52.034;5.158;2023-08-08T00:52:56;11.25;;;3.65;;
16669;SDS011;8448;52.034;5.158;2023-08-08T00:55:24;12.00;;;3.45;;
16669;SDS011;8448;52.034;5.158;2023-08-08T00:57:51;12.15;;;3.30;;
16669;SDS011;8448;52.034;5.158;2023-08-08T01:00:19;13.13;;;3.58;;
16669;SDS011;8448;52.034;5.158;2023-08-08T01:02:46;10.00;;;3.75;;
16669;SDS011;8448;52.034;5.158;2023-08-08T01:05:14;11.82;;;3.72;;
16669;SDS011;8448;52.034;5.158;2023-08-08T01:07:47;8.50;;;3.20;;
16669;SDS011;8448;52.034;5.158;2023-08-08T01:10:23;11.07;;;4.00;;
16669;SDS011;8448;52.034;5.158;2023-08-08T01:12:54;11.85;;;3.63;;
16669;SDS011;8448;52.034;5.158;2023-08-08T01:15:24;10.45;;;3.50;;
16669;SDS011;8448;52.034;5.158;2023-08-08T01:17:52;10.65;;;3.50;;
16669;SDS011;8448;52.034;5.158;2023-08-08T01:20:20;9.25;;;3.50;;
16669;SDS011;8448;52.034;5.158;2023-08-08T01:22:54;11.70;;;3.90;;
16669;SDS011;8448;52.034;5.158;2023-08-08T01:25:27;12.55;;;3.53;;
16669;SDS011;8448;52.034;5.158;2023-08-08T01:27:55;9.02;;;3.55;;
16669;SDS011;8448;52.034;5.158;2023-08-08T01:30:22;10.52;;;3.78;;
16669;SDS011;8448;52.034;5.158;2023-08-08T01:32:50;11.93;;;3.67;;
16669;SDS011;8448;52.034;5.158;2023-08-08T01:35:17;8.13;;;3.60;;
16669;SDS011;8448;52.034;5.158;2023-08-08T01:37:46;12.27;;;4.03;;
16669;SDS011;8448;52.034;5.158;2023-08-08T01:40:18;12.00;;;4.20;;
16669;SDS011;8448;52.034;5.158;2023-08-08T01:42:48;12.55;;;4.05;;
16669;SDS011;8448;52.034;5.158;2023-08-08T01:45:16;10.75;;;4.10;;
16669;SDS011;8448;52.034;5.158;2023-08-08T01:47:48;10.55;;;4.13;;
16669;SDS011;8448;52.034;5.158;2023-08-08T01:50:16;9.02;;;4.20;;
16669;SDS011;8448;52.034;5.158;2023-08-08T01:52:44;11.00;;;4.22;;
16669;SDS011;8448;52.034;5.158;2023-08-08T01:55:11;8.57;;;3.65;;
16669;SDS011;8448;52.034;5.158;2023-08-08T01:57:39;17.85;;;4.13;;
16669;SDS011;8448;52.034;5.158;2023-08-08T02:00:08;13.43;;;4.88;;
16669;SDS011;8448;52.034;5.158;2023-08-08T02:02:46;13.82;;;4.15;;
16669;SDS011;8448;52.034;5.158;2023-08-08T02:05:13;13.60;;;4.03;;
16669;SDS011;8448;52.034;5.158;2023-08-08T02:07:40;11.85;;;4.07;;
16669;SDS011;8448;52.034;5.158;2023-08-08T02:10:08;15.55;;;4.53;;
16669;SDS011;8448;52.034;5.158;2023-08-08T02:12:35;12.07;;;4.50;;
16669;SDS011;8448;52.034;5.158;2023-08-08T02:15:03;12.60;;;4.22;;
16669;SDS011;8448;52.034;5.158;2023-08-08T02:17:33;11.55;;;4.03;;
16669;SDS011;8448;52.034;5.158;2023-08-08T02:20:01;10.82;;;4.65;;
16669;SDS011;8448;52.034;5.158;2023-08-08T02:22:30;10.68;;;4.00;;
16669;SDS011;8448;52.034;5.158;2023-08-08T02:24:57;8.98;;;3.92;;
16669;SDS011;8448;52.034;5.158;2023-08-08T02:27:24;14.35;;;4.10;;
16669;SDS011;8448;52.034;5.158;2023-08-08T02:29:52;10.13;;;4.25;;
16669;SDS011;8448;52.034;5.158;2023-08-08T02:32:19;10.43;;;4.13;;
16669;SDS011;8448;52.034;5.158;2023-08-08T02:34:48;13.85;;;4.22;;
16669;SDS011;8448;52.034;5.158;2023-08-08T02:37:15;9.68;;;4.32;;
16669;SDS011;8448;52.034;5.158;2023-08-08T02:39:43;10.85;;;4.45;;
16669;SDS011;8448;52.034;5.158;2023-08-08T02:42:11;12.18;;;4.63;;
16669;SDS011;8448;52.034;5.158;2023-08-08T02:44:38;10.52;;;4.20;;
16669;SDS011;8448;52.034;5.158;2023-08-08T02:47:06;9.38;;;4.10;;
16669;SDS011;8448;52.034;5.158;2023-08-08T02:49:34;11.13;;;4.13;;
16669;SDS011;8448;52.034;5.158;2023-08-08T02:52:03;9.05;;;4.25;;
16669;SDS011;8448;52.034;5.158;2023-08-08T02:54:33;8.27;;;4.10;;
16669;SDS011;8448;52.034;5.158;2023-08-08T02:57:00;10.43;;;4.20;;
16669;SDS011;8448;52.034;5.158;2023-08-08T02:59:28;8.00;;;4.18;;
16669;SDS011;8448;52.034;5.158;2023-08-08T03:01:55;7.82;;;3.83;;
16669;SDS011;8448;52.034;5.158;2023-08-08T03:04:23;8.43;;;3.92;;
16669;SDS011;8448;52.034;5.158;2023-08-08T03:06:50;11.05;;;4.15;;
16669;SDS011;8448;52.034;5.158;2023-08-08T03:09:20;7.47;;;3.78;;
16669;SDS011;8448;52.034;5.158;2023-08-08T03:11:47;7.47;;;3.75;;
16669;SDS011;8448;52.034;5.158;2023-08-08T03:14:15;10.38;;;4.10;;
16669;SDS011;8448;52.034;5.158;2023-08-08T03:16:43;8.48;;;3.80;;
16669;SDS011;8448;52.034;5.158;2023-08-08T03:19:11;10.10;;;3.72;;
16669;SDS011;8448;52.034;5.158;2023-08-08T03:21:38;10.20;;;4.43;;
16669;SDS011;8448;52.034;5.158;2023-08-08T03:24:06;13.70;;;4.55;;
16669;SDS011;8448;52.034;5.158;2023-08-08T03:26:35;6.78;;;3.70;;
16669;SDS011;8448;52.034;5.158;2023-08-08T03:29:04;8.60;;;4.28;;
16669;SDS011;8448;52.034;5.158;2023-08-08T03:31:38;8.57;;;4.10;;
16669;SDS011;8448;52.034;5.158;2023-08-08T03:34:06;8.48;;;4.53;;
16669;SDS011;8448;52.034;5.158;2023-08-08T03:36:34;6.35;;;4.20;;
16669;SDS011;8448;52.034;5.158;2023-08-08T03:39:01;11.00;;;4.40;;
16669;SDS011;8448;52.034;5.158;2023-08-08T03:41:29;11.02;;;4.25;;
16669;SDS011;8448;52.034;5.158;2023-08-08T03:43:58;8.02;;;3.95;;
16669;SDS011;8448;52.034;5.158;2023-08-08T03:46:28;10.05;;;4.35;;
16669;SDS011;8448;52.034;5.158;2023-08-08T03:48:55;7.13;;;3.97;;
16669;SDS011;8448;52.034;5.158;2023-08-08T03:51:22;8.90;;;4.05;;
16669;SDS011;8448;52.034;5.158;2023-08-08T03:53:50;8.80;;;4.15;;
16669;SDS011;8448;52.034;5.158;2023-08-08T03:56:17;7.78;;;4.07;;
16669;SDS011;8448;52.034;5.158;2023-08-08T03:58:45;7.03;;;3.80;;
16669;SDS011;8448;52.034;5.158;2023-08-08T04:01:14;6.25;;;3.80;;
16669;SDS011;8448;52.034;5.158;2023-08-08T04:03:41;8.02;;;4.20;;
16669;SDS011;8448;52.034;5.158;2023-08-08T04:06:09;8.85;;;4.38;;
16669;SDS011;8448;52.034;5.158;2023-08-08T04:08:36;7.60;;;3.75;;
16669;SDS011;8448;52.034;5.158;2023-08-08T04:11:06;8.63;;;3.63;;
16669;SDS011;8448;52.034;5.158;2023-08-08T04:13:34;10.82;;;4.50;;
16669;SDS011;8448;52.034;5.158;2023-08-08T04:16:02;7.93;;;3.95;;
16669;SDS011;8448;52.034;5.158;2023-08-08T04:18:31;12.52;;;4.00;;
16669;SDS011;8448;52.034;5.158;2023-08-08T04:21:00;8.38;;;3.80;;
16669;SDS011;8448;52.034;5.158;2023-08-08T04:23:27;5.93;;;3.92;;
16669;SDS011;8448;52.034;5.158;2023-08-08T04:25:54;7.97;;;4.00;;
16669;SDS011;8448;52.034;5.158;2023-08-08T04:28:22;10.68;;;4.47;;
16669;SDS011;8448;52.034;5.158;2023-08-08T04:30:49;10.95;;;4.03;;
16669;SDS011;8448;52.034;5.158;2023-08-08T04:33:17;6.95;;;3.65;;
16669;SDS011;8448;52.034;5.158;2023-08-08T04:35:45;7.95;;;3.72;;
16669;SDS011;8448;52.034;5.158;2023-08-08T04:38:13;6.78;;;3.47;;
16669;SDS011;8448;52.034;5.158;2023-08-08T04:40:41;6.63;;;3.30;;
16669;SDS011;8448;52.034;5.158;2023-08-08T04:43:08;6.85;;;3.35;;
16669;SDS011;8448;52.034;5.158;2023-08-08T04:45:36;6.90;;;3.45;;
16669;SDS011;8448;52.034;5.158;2023-08-08T04:48:03;6.55;;;3.00;;
16669;SDS011;8448;52.034;5.158;2023-08-08T04:50:31;8.63;;;3.20;;
16669;SDS011;8448;52.034;5.158;2023-08-08T04:53:00;7.63;;;2.78;;
16669;SDS011;8448;52.034;5.158;2023-08-08T04:55:27;7.13;;;2.83;;
16669;SDS011;8448;52.034;5.158;2023-08-08T04:57:55;7.18;;;2.97;;
16669;SDS011;8448;52.034;5.158;2023-08-08T05:00:22;5.82;;;2.65;;
16669;SDS011;8448;52.034;5.158;2023-08-08T05:02:51;6.45;;;2.90;;
16669;SDS011;8448;52.034;5.158;2023-08-08T05:05:19;5.18;;;2.58;;
16669;SDS011;8448;52.034;5.158;2023-08-08T05:07:46;6.80;;;2.55;;
16669;SDS011;8448;52.034;5.158;2023-08-08T05:10:15;5.47;;;2.10;;
16669;SDS011;8448;52.034;5.158;2023-08-08T05:12:43;6.20;;;2.08;;
16669;SDS011;8448;52.034;5.158;2023-08-08T05:15:10;4.50;;;2.33;;
16669;SDS011;8448;52.034;5.158;2023-08-08T05:17:37;4.97;;;2.17;;
16669;SDS011;8448;52.034;5.158;2023-08-08T05:20:05;6.78;;;2.47;;
16669;SDS011;8448;52.034;5.158;2023-08-08T05:22:35;5.93;;;1.90;;
16669;SDS011;8448;52.034;5.158;2023-08-08T05:25:02;5.05;;;2.03;;
16669;SDS011;8448;52.034;5.158;2023-08-08T05:27:31;3.83;;;1.98;;
16669;SDS011;8448;52.034;5.158;2023-08-08T05:29:59;5.70;;;1.80;;
16669;SDS011;8448;52.034;5.158;2023-08-08T05:32:27;4.68;;;1.80;;
16669;SDS011;8448;52.034;5.158;2023-08-08T05:34:54;3.53;;;1.70;;
16669;SDS011;8448;52.034;5.158;2023-08-08T05:37:23;3.30;;;1.70;;
16669;SDS011;8448;52.034;5.158;2023-08-08T05:39:50;4.47;;;1.80;;
16669;SDS011;8448;52.034;5.158;2023-08-08T05:42:18;4.68;;;1.73;;
16669;SDS011;8448;52.034;5.158;2023-08-08T05:44:47;2.70;;;1.60;;
16669;SDS011;8448;52.034;5.158;2023-08-08T05:47:14;2.90;;;1.40;;
16669;SDS011;8448;52.034;5.158;2023-08-08T05:49:42;3.58;;;1.60;;
16669;SDS011;8448;52.034;5.158;2023-08-08T05:52:09;3.70;;;1.67;;
16669;SDS011;8448;52.034;5.158;2023-08-08T05:54:37;3.22;;;1.52;;
16669;SDS011;8448;52.034;5.158;2023-08-08T05:57:04;2.28;;;1.45;;
16669;SDS011;8448;52.034;5.158;2023-08-08T05:59:32;4.00;;;1.52;;
16669;SDS011;8448;52.034;5.158;2023-08-08T06:02:01;4.00;;;1.30;;
16669;SDS011;8448;52.034;5.158;2023-08-08T06:04:29;4.28;;;1.48;;
16669;SDS011;8448;52.034;5.158;2023-08-08T06:06:56;5.22;;;1.52;;
16669;SDS011;8448;52.034;5.158;2023-08-08T06:09:24;5.60;;;1.55;;
16669;SDS011;8448;52.034;5.158;2023-08-08T06:11:52;2.38;;;1.40;;
16669;SDS011;8448;52.034;5.158;2023-08-08T06:14:20;3.65;;;1.50;;
16669;SDS011;8448;52.034;5.158;2023-08-08T06:16:47;3.38;;;1.50;;
16669;SDS011;8448;52.034;5.158;2023-08-08T06:19:16;2.50;;;1.38;;
16669;SDS011;8448;52.034;5.158;2023-08-08T06:21:44;3.10;;;1.30;;
16669;SDS011;8448;52.034;5.158;2023-08-08T06:24:11;5.65;;;1.30;;
16669;SDS011;8448;52.034;5.158;2023-08-08T06:26:39;3.58;;;1.50;;
16669;SDS011;8448;52.034;5.158;2023-08-08T06:29:07;6.80;;;1.73;;
16669;SDS011;8448;52.034;5.158;2023-08-08T06:31:34;5.15;;;1.40;;
16669;SDS011;8448;52.034;5.158;2023-08-08T06:34:01;5.40;;;1.40;;
16669;SDS011;8448;52.034;5.158;2023-08-08T06:36:30;3.83;;;1.23;;
16669;SDS011;8448;52.034;5.158;2023-08-08T06:38:58;4.40;;;1.15;;
16669;SDS011;8448;52.034;5.158;2023-08-08T06:41:25;3.63;;;1.10;;
16669;SDS011;8448;52.034;5.158;2023-08-08T06:43:52;3.80;;;1.20;;
16669;SDS011;8448;52.034;5.158;2023-08-08T06:46:20;3.08;;;1.30;;
16669;SDS011;8448;52.034;5.158;2023-08-08T06:48:49;2.78;;;1.33;;
16669;SDS011;8448;52.034;5.158;2023-08-08T06:51:18;3.47;;;1.20;;
16669;SDS011;8448;52.034;5.158;2023-08-08T06:53:47;5.53;;;1.27;;
16669;SDS011;8448;52.034;5.158;2023-08-08T06:56:16;4.53;;;1.27;;
16669;SDS011;8448;52.034;5.158;2023-08-08T06:58:44;3.17;;;1.27;;
16669;SDS011;8448;52.034;5.158;2023-08-08T07:01:11;7.78;;;1.30;;
16669;SDS011;8448;52.034;5.158;2023-08-08T07:03:39;1.88;;;1.10;;
16669;SDS011;8448;52.034;5.158;2023-08-08T07:06:07;2.75;;;0.85;;
16669;SDS011;8448;52.034;5.158;2023-08-08T07:08:35;3.38;;;1.00;;
16669;SDS011;8448;52.034;5.158;2023-08-08T07:11:05;2.80;;;0.95;;
16669;SDS011;8448;52.034;5.158;2023-08-08T07:13:33;2.00;;;1.10;;
16669;SDS011;8448;52.034;5.158;2023-08-08T07:16:00;2.15;;;0.85;;
16669;SDS011;8448;52.034;5.158;2023-08-08T07:18:28;3.75;;;1.15;;
16669;SDS011;8448;52.034;5.158;2023-08-08T07:20:55;2.38;;;0.75;;
16669;SDS011;8448;52.034;5.158;2023-08-08T07:23:23;3.67;;;1.00;;
16669;SDS011;8448;52.034;5.158;2023-08-08T07:25:50;4.43;;;1.00;;
16669;SDS011;8448;52.034;5.158;2023-08-08T07:28:19;2.60;;;0.90;;
16669;SDS011;8448;52.034;5.158;2023-08-08T07:30:46;3.47;;;1.00;;
16669;SDS011;8448;52.034;5.158;2023-08-08T07:33:14;4.45;;;0.98;;
16669;SDS011;8448;52.034;5.158;2023-08-08T07:35:41;1.98;;;0.90;;
16669;SDS011;8448;52.034;5.158;2023-08-08T07:38:09;1.80;;;0.70;;
16669;SDS011;8448;52.034;5.158;2023-08-08T07:40:36;3.33;;;0.80;;
16669;SDS011;8448;52.034;5.158;2023-08-08T07:43:05;2.17;;;0.80;;
16669;SDS011;8448;52.034;5.158;2023-08-08T07:45:34;1.85;;;0.60;;
16669;SDS011;8448;52.034;5.158;2023-08-08T07:48:02;1.00;;;0.57;;
16669;SDS011;8448;52.034;5.158;2023-08-08T07:50:30;2.60;;;0.90;;
16669;SDS011;8448;52.034;5.158;2023-08-08T07:52:58;3.15;;;0.75;;
16669;SDS011;8448;52.034;5.158;2023-08-08T07:55:25;1.70;;;0.70;;
16669;SDS011;8448;52.034;5.158;2023-08-08T07:57:52;2.97;;;0.77;;
16669;SDS011;8448;52.034;5.158;2023-08-08T08:00:20;2.08;;;0.68;;
16669;SDS011;8448;52.034;5.158;2023-08-08T08:02:49;4.63;;;0.90;;
16669;SDS011;8448;52.034;5.158;2023-08-08T08:05:17;5.03;;;0.98;;
16669;SDS011;8448;52.034;5.158;2023-08-08T08:07:44;4.22;;;0.88;;
16669;SDS011;8448;52.034;5.158;2023-08-08T08:10:12;2.08;;;0.80;;
16669;SDS011;8448;52.034;5.158;2023-08-08T08:12:39;2.28;;;0.70;;
16669;SDS011;8448;52.034;5.158;2023-08-08T08:15:08;4.55;;;0.90;;
16669;SDS011;8448;52.034;5.158;2023-08-08T08:17:36;3.55;;;0.70;;
16669;SDS011;8448;52.034;5.158;2023-08-08T08:20:05;1.20;;;0.80;;
16669;SDS011;8448;52.034;5.158;2023-08-08T08:22:36;2.55;;;0.82;;
16669;SDS011;8448;52.034;5.158;2023-08-08T08:25:04;2.20;;;0.98;;
16669;SDS011;8448;52.034;5.158;2023-08-08T08:27:34;2.22;;;0.68;;
16669;SDS011;8448;52.034;5.158;2023-08-08T08:30:02;2.13;;;0.50;;
16669;SDS011;8448;52.034;5.158;2023-08-08T08:32:33;3.42;;;0.80;;
16669;SDS011;8448;52.034;5.158;2023-08-08T08:35:01;2.63;;;0.63;;
16669;SDS011;8448;52.034;5.158;2023-08-08T08:37:30;2.10;;;0.80;;
16669;SDS011;8448;52.034;5.158;2023-08-08T08:39:58;2.08;;;0.80;;
16669;SDS011;8448;52.034;5.158;2023-08-08T08:42:26;3.03;;;0.70;;
16669;SDS011;8448;52.034;5.158;2023-08-08T08:44:53;1.95;;;1.00;;
16669;SDS011;8448;52.034;5.158;2023-08-08T08:47:25;2.25;;;0.75;;
16669;SDS011;8448;52.034;5.158;2023-08-08T08:49:52;1.80;;;0.68;;
16669;SDS011;8448;52.034;5.158;2023-08-08T08:52:20;1.30;;;0.63;;
16669;SDS011;8448;52.034;5.158;2023-08-08T08:54:49;1.60;;;0.60;;
16669;SDS011;8448;52.034;5.158;2023-08-08T08:57:17;1.98;;;0.60;;
16669;SDS011;8448;52.034;5.158;2023-08-08T08:59:44;2.00;;;0.70;;
16669;SDS011;8448;52.034;5.158;2023-08-08T09:02:12;1.45;;;0.70;;
16669;SDS011;8448;52.034;5.158;2023-08-08T09:04:40;1.83;;;0.77;;
16669;SDS011;8448;52.034;5.158;2023-08-08T09:07:07;2.80;;;0.65;;
16669;SDS011;8448;52.034;5.158;2023-08-08T09:09:35;1.65;;;1.00;;
16669;SDS011;8448;52.034;5.158;2023-08-08T09:12:05;2.42;;;0.77;;
16669;SDS011;8448;52.034;5.158;2023-08-08T09:14:33;1.88;;;0.75;;
16669;SDS011;8448;52.034;5.158;2023-08-08T09:17:00;1.55;;;0.80;;
16669;SDS011;8448;52.034;5.158;2023-08-08T09:19:28;0.93;;;0.60;;
16669;SDS011;8448;52.034;5.158;2023-08-08T09:21:55;1.52;;;0.80;;
16669;SDS011;8448;52.034;5.158;2023-08-08T09:24:23;1.98;;;0.73;;
16669;SDS011;8448;52.034;5.158;2023-08-08T09:26:50;4.25;;;0.80;;
16669;SDS011;8448;52.034;5.158;2023-08-08T09:29:19;1.85;;;0.80;;
16669;SDS011;8448;52.034;5.158;2023-08-08T09:31:47;1.33;;;0.60;;
16669;SDS011;8448;52.034;5.158;2023-08-08T09:34:14;1.45;;;0.80;;
16669;SDS011;8448;52.034;5.158;2023-08-08T09:36:42;2.13;;;0.90;;
16669;SDS011;8448;52.034;5.158;2023-08-08T09:39:10;0.98;;;0.70;;
16669;SDS011;8448;52.034;5.158;2023-08-08T09:41:37;3.25;;;1.00;;
16669;SDS011;8448;52.034;5.158;2023-08-08T09:44:07;1.27;;;0.80;;
16669;SDS011;8448;52.034;5.158;2023-08-08T09:46:36;3.90;;;1.10;;
16669;SDS011;8448;52.034;5.158;2023-08-08T09:49:05;1.95;;;0.80;;
16669;SDS011;8448;52.034;5.158;2023-08-08T09:51:32;2.55;;;1.00;;
16669;SDS011;8448;52.034;5.158;2023-08-08T09:54:00;1.35;;;0.75;;
16669;SDS011;8448;52.034;5.158;2023-08-08T09:56:28;1.42;;;0.85;;
16669;SDS011;8448;52.034;5.158;2023-08-08T09:58:55;2.55;;;0.90;;
16669;SDS011;8448;52.034;5.158;2023-08-08T10:01:24;1.92;;;1.00;;
16669;SDS011;8448;52.034;5.158;2023-08-08T10:03:53;1.08;;;0.70;;
16669;SDS011;8448;52.034;5.158;2023-08-08T10:06:21;1.67;;;0.80;;
16669;SDS011;8448;52.034;5.158;2023-08-08T10:08:48;1.15;;;0.70;;
16669;SDS011;8448;52.034;5.158;2023-08-08T10:11:16;1.38;;;0.98;;
16669;SDS011;8448;52.034;5.158;2023-08-08T10:13:49;0.90;;;0.77;;
16669;SDS011;8448;52.034;5.158;2023-08-08T10:16:17;1.83;;;1.00;;
16669;SDS011;8448;52.034;5.158;2023-08-08T10:18:45;1.90;;;0.85;;
16669;SDS011;8448;52.034;5.158;2023-08-08T10:21:22;1.60;;;0.90;;
16669;SDS011;8448;52.034;5.158;2023-08-08T10:24:00;1.77;;;0.80;;
16669;SDS011;8448;52.034;5.158;2023-08-08T10:26:28;1.48;;;0.90;;
16669;SDS011;8448;52.034;5.158;2023-08-08T10:28:57;1.67;;;0.80;;
16669;SDS011;8448;52.034;5.158;2023-08-08T10:31:25;1.50;;;0.90;;
16669;SDS011;8448;52.034;5.158;2023-08-08T10:34:00;3.33;;;1.10;;
16669;SDS011;8448;52.034;5.158;2023-08-08T10:39:15;1.83;;;0.70;;
16669;SDS011;8448;52.034;5.158;2023-08-08T10:41:44;1.80;;;1.00;;
16669;SDS011;8448;52.034;5.158;2023-08-08T10:44:13;2.30;;;0.70;;
16669;SDS011;8448;52.034;5.158;2023-08-08T10:46:46;1.88;;;0.88;;
16669;SDS011;8448;52.034;5.158;2023-08-08T10:49:14;1.50;;;0.90;;
16669;SDS011;8448;52.034;5.158;2023-08-08T10:51:42;1.30;;;0.75;;
16669;SDS011;8448;52.034;5.158;2023-08-08T10:54:14;3.00;;;0.90;;
16669;SDS011;8448;52.034;5.158;2023-08-08T10:56:47;2.10;;;0.82;;
16669;SDS011;8448;52.034;5.158;2023-08-08T10:59:16;0.90;;;0.70;;
16669;SDS011;8448;52.034;5.158;2023-08-08T11:01:47;1.45;;;0.88;;
16669;SDS011;8448;52.034;5.158;2023-08-08T11:04:17;1.70;;;0.70;;
16669;SDS011;8448;52.034;5.158;2023-08-08T11:06:47;1.13;;;0.90;;
16669;SDS011;8448;52.034;5.158;2023-08-08T11:09:15;1.88;;;0.98;;
16669;SDS011;8448;52.034;5.158;2023-08-08T11:11:43;2.00;;;1.20;;
16669;SDS011;8448;52.034;5.158;2023-08-08T11:14:12;1.95;;;0.85;;
16669;SDS011;8448;52.034;5.158;2023-08-08T11:16:41;1.30;;;0.82;;
16669;SDS011;8448;52.034;5.158;2023-08-08T11:19:10;2.53;;;0.90;;
16669;SDS011;8448;52.034;5.158;2023-08-08T11:21:39;3.55;;;1.05;;
16669;SDS011;8448;52.034;5.158;2023-08-08T11:24:08;1.42;;;0.90;;
16669;SDS011;8448;52.034;5.158;2023-08-08T11:26:37;1.00;;;0.93;;
16669;SDS011;8448;52.034;5.158;2023-08-08T11:29:06;3.97;;;0.80;;
16669;SDS011;8448;52.034;5.158;2023-08-08T11:31:33;1.48;;;0.88;;
16669;SDS011;8448;52.034;5.158;2023-08-08T11:34:01;2.25;;;1.00;;
16669;SDS011;8448;52.034;5.158;2023-08-08T11:36:29;2.15;;;0.88;;
16669;SDS011;8448;52.034;5.158;2023-08-08T11:38:58;1.80;;;1.10;;
16669;SDS011;8448;52.034;5.158;2023-08-08T11:41:32;1.30;;;0.80;;
16669;SDS011;8448;52.034;5.158;2023-08-08T11:44:01;3.63;;;1.20;;
16669;SDS011;8448;52.034;5.158;2023-08-08T11:46:29;2.42;;;1.10;;
16669;SDS011;8448;52.034;5.158;2023-08-08T11:49:01;1.60;;;1.10;;
16669;SDS011;8448;52.034;5.158;2023-08-08T11:51:31;2.08;;;1.00;;
16669;SDS011;8448;52.034;5.158;2023-08-08T11:54:00;1.15;;;0.90;;
16669;SDS011;8448;52.034;5.158;2023-08-08T11:56:29;1.10;;;0.95;;
16669;SDS011;8448;52.034;5.158;2023-08-08T11:58:59;2.85;;;1.00;;
16669;SDS011;8448;52.034;5.158;2023-08-08T12:01:27;1.98;;;0.75;;
16669;SDS011;8448;52.034;5.158;2023-08-08T12:03:55;2.20;;;1.00;;
16669;SDS011;8448;52.034;5.158;2023-08-08T12:06:23;1.90;;;0.90;;
16669;SDS011;8448;52.034;5.158;2023-08-08T12:08:55;2.55;;;0.90;;
16669;SDS011;8448;52.034;5.158;2023-08-08T12:11:23;2.63;;;1.10;;
16669;SDS011;8448;52.034;5.158;2023-08-08T12:13:57;2.17;;;0.95;;
16669;SDS011;8448;52.034;5.158;2023-08-08T12:16:27;3.70;;;1.00;;
16669;SDS011;8448;52.034;5.158;2023-08-08T12:18:56;1.65;;;0.98;;
16669;SDS011;8448;52.034;5.158;2023-08-08T12:21:23;2.78;;;1.00;;
16669;SDS011;8448;52.034;5.158;2023-08-08T12:23:50;1.98;;;0.98;;
16669;SDS011;8448;52.034;5.158;2023-08-08T12:26:18;3.05;;;1.08;;
16669;SDS011;8448;52.034;5.158;2023-08-08T12:28:46;4.55;;;1.00;;
16669;SDS011;8448;52.034;5.158;2023-08-08T12:31:16;3.40;;;0.88;;
16669;SDS011;8448;52.034;5.158;2023-08-08T12:33:44;1.35;;;0.75;;
16669;SDS011;8448;52.034;5.158;2023-08-08T12:36:11;3.33;;;0.90;;
16669;SDS011;8448;52.034;5.158;2023-08-08T12:38:39;3.47;;;0.90;;
16669;SDS011;8448;52.034;5.158;2023-08-08T12:41:07;1.20;;;0.77;;
16669;SDS011;8448;52.034;5.158;2023-08-08T12:43:36;0.90;;;0.77;;
16669;SDS011;8448;52.034;5.158;2023-08-08T12:46:03;1.13;;;0.90;;
16669;SDS011;8448;52.034;5.158;2023-08-08T12:48:32;2.08;;;0.90;;
16669;SDS011;8448;52.034;5.158;2023-08-08T12:50:59;2.05;;;0.93;;
16669;SDS011;8448;52.034;5.158;2023-08-08T12:53:27;5.22;;;1.25;;
16669;SDS011;8448;52.034;5.158;2023-08-08T12:55:55;2.58;;;1.10;;
16669;SDS011;8448;52.034;5.158;2023-08-08T12:58:22;1.52;;;0.90;;
16669;SDS011;8448;52.034;5.158;2023-08-08T13:00:50;1.73;;;0.88;;
16669;SDS011;8448;52.034;5.158;2023-08-08T13:03:19;2.40;;;1.02;;
16669;SDS011;8448;52.034;5.158;2023-08-08T13:05:48;3.25;;;0.88;;
16669;SDS011;8448;52.034;5.158;2023-08-08T13:08:15;1.00;;;0.70;;
16669;SDS011;8448;52.034;5.158;2023-08-08T13:10:42;3.53;;;1.35;;
16669;SDS011;8448;52.034;5.158;2023-08-08T13:13:10;1.70;;;1.05;;
16669;SDS011;8448;52.034;5.158;2023-08-08T13:15:38;3.03;;;1.20;;
16669;SDS011;8448;52.034;5.158;2023-08-08T13:18:06;3.05;;;1.23;;
16669;SDS011;8448;52.034;5.158;2023-08-08T13:20:33;2.75;;;1.02;;
16669;SDS011;8448;52.034;5.158;2023-08-08T13:23:02;2.15;;;1.15;;
16669;SDS011;8448;52.034;5.158;2023-08-08T13:25:30;2.05;;;0.90;;
16669;SDS011;8448;52.034;5.158;2023-08-08T13:27:59;3.25;;;1.00;;
16669;SDS011;8448;52.034;5.158;2023-08-08T13:30:28;3.03;;;1.27;;
16669;SDS011;8448;52.034;5.158;2023-08-08T13:32:56;2.25;;;1.10;;
16669;SDS011;8448;52.034;5.158;2023-08-08T13:35:24;3.38;;;1.20;;
16669;SDS011;8448;52.034;5.158;2023-08-08T13:37:51;3.03;;;1.30;;
16669;SDS011;8448;52.034;5.158;2023-08-08T13:40:21;4.63;;;1.00;;
16669;SDS011;8448;52.034;5.158;2023-08-08T13:42:48;1.23;;;1.00;;
16669;SDS011;8448;52.034;5.158;2023-08-08T13:45:16;2.80;;;1.00;;
16669;SDS011;8448;52.034;5.158;2023-08-08T13:47:44;1.88;;;0.98;;
16669;SDS011;8448;52.034;5.158;2023-08-08T13:50:12;2.17;;;1.33;;
16669;SDS011;8448;52.034;5.158;2023-08-08T13:52:40;3.53;;;1.05;;
16669;SDS011;8448;52.034;5.158;2023-08-08T13:55:08;2.95;;;1.10;;
16669;SDS011;8448;52.034;5.158;2023-08-08T13:57:36;4.20;;;1.23;;
16669;SDS011;8448;52.034;5.158;2023-08-08T14:00:04;2.92;;;1.10;;
16669;SDS011;8448;52.034;5.158;2023-08-08T14:02:36;2.00;;;1.10;;
16669;SDS011;8448;52.034;5.158;2023-08-08T14:05:04;2.47;;;0.98;;
16669;SDS011;8448;52.034;5.158;2023-08-08T14:07:32;3.08;;;0.98;;
16669;SDS011;8448;52.034;5.158;2023-08-08T14:10:00;1.60;;;1.10;;
16669;SDS011;8448;52.034;5.158;2023-08-08T14:12:28;2.53;;;0.95;;
16669;SDS011;8448;52.034;5.158;2023-08-08T14:14:57;2.85;;;1.25;;
16669;SDS011;8448;52.034;5.158;2023-08-08T14:17:24;1.40;;;1.02;;
16669;SDS011;8448;52.034;5.158;2023-08-08T14:19:52;3.35;;;1.15;;
16669;SDS011;8448;52.034;5.158;2023-08-08T14:22:19;2.28;;;1.00;;
16669;SDS011;8448;52.034;5.158;2023-08-08T14:24:47;2.03;;;1.10;;
16669;SDS011;8448;52.034;5.158;2023-08-08T14:27:14;2.60;;;1.27;;
16669;SDS011;8448;52.034;5.158;2023-08-08T14:29:42;2.53;;;1.25;;
16669;SDS011;8448;52.034;5.158;2023-08-08T14:32:10;3.17;;;1.40;;
16669;SDS011;8448;52.034;5.158;2023-08-08T14:34:38;1.77;;;1.10;;
16669;SDS011;8448;52.034;5.158;2023-08-08T14:37:05;1.83;;;1.20;;
16669;SDS011;8448;52.034;5.158;2023-08-08T14:39:33;2.78;;;1.10;;
16669;SDS011;8448;52.034;5.158;2023-08-08T14:42:00;2.65;;;1.30;;
16669;SDS011;8448;52.034;5.158;2023-08-08T14:44:29;2.42;;;1.30;;
16669;SDS011;8448;52.034;5.158;2023-08-08T14:46:56;2.15;;;1.40;;
16669;SDS011;8448;52.034;5.158;2023-08-08T14:49:25;4.47;;;1.23;;
16669;SDS011;8448;52.034;5.158;2023-08-08T14:51:52;2.90;;;1.38;;
16669;SDS011;8448;52.034;5.158;2023-08-08T14:54:20;2.28;;;1.30;;
16669;SDS011;8448;52.034;5.158;2023-08-08T14:56:47;3.22;;;1.30;;
16669;SDS011;8448;52.034;5.158;2023-08-08T14:59:15;4.13;;;1.70;;
16669;SDS011;8448;52.034;5.158;2023-08-08T15:01:43;2.03;;;1.42;;
16669;SDS011;8448;52.034;5.158;2023-08-08T15:04:11;5.70;;;1.58;;
16669;SDS011;8448;52.034;5.158;2023-08-08T15:06:40;2.47;;;1.42;;